sensor_id;sensor_type;location;lat;lon;timestamp;pressure;altitude;pressure_sealevel;temperature;humidity
46394;BME280;32099;53.588;10.176;2023-05-23T00:00:36;100914.94;;;17.88;77.63
46394;BME280;32099;53.588;10.176;2023-05-23T00:03:01;100912.19;;;17.88;77.04
46394;BME280;32099;53.588;10.176;2023-05-23T00:05:27;100911.56;;;17.86;77.33
46394;BME280;32099;53.588;10.176;2023-05-23T00:07:53;100914.31;;;17.86;77.50
46394;BME280;32099;53.588;10.176;2023-05-23T00:10:18;100918.78;;;17.87;77.79
46394;BME280;32099;53.588;10.176;2023-05-23T00:12:44;100917.94;;;17.86;77.38
46394;BME280;32099;53.588;10.176;2023-05-23T00:15:12;100911.34;;;17.87;77.30
46394;BME280;32099;53.588;10.176;2023-05-23T00:17:38;100910.94;;;17.84;77.29
46394;BME280;32099;53.588;10.176;2023-05-23T00:20:04;100903.97;;;17.81;77.40
46394;BME280;32099;53.588;10.176;2023-05-23T00:22:30;100903.16;;;17.81;77.25
46394;BME280;32099;53.588;10.176;2023-05-23T00:24:55;100913.09;;;17.82;76.84
46394;BME280;32099;53.588;10.176;2023-05-23T00:27:21;100906.97;;;17.80;77.05
46394;BME280;32099;53.588;10.176;2023-05-23T00:29:47;100911.25;;;17.76;76.66
46394;BME280;32099;53.588;10.176;2023-05-23T00:32:12;100907.72;;;17.68;76.95
46394;BME280;32099;53.588;10.176;2023-05-23T00:34:37;100903.94;;;17.63;76.59
46394;BME280;32099;53.588;10.176;2023-05-23T00:37:03;100894.69;;;17.57;76.81
46394;BME280;32099;53.588;10.176;2023-05-23T00:39:29;100898.13;;;17.52;76.92
46394;BME280;32099;53.588;10.176;2023-05-23T00:41:54;100906.59;;;17.51;76.48
46394;BME280;32099;53.588;10.176;2023-05-23T00:44:20;100902.81;;;17.45;76.39
46394;BME280;32099;53.588;10.176;2023-05-23T00:46:46;100898.00;;;17.40;76.13
46394;BME280;32099;53.588;10.176;2023-05-23T00:49:14;100894.22;;;17.35;76.45
46394;BME280;32099;53.588;10.176;2023-05-23T00:51:43;100898.28;;;17.32;76.44
46394;BME280;32099;53.588;10.176;2023-05-23T00:54:10;100897.41;;;17.32;77.17
46394;BME280;32099;53.588;10.176;2023-05-23T00:56:37;100892.13;;;17.30;77.13
46394;BME280;32099;53.588;10.176;2023-05-23T00:59:03;100894.06;;;17.30;77.44
46394;BME280;32099;53.588;10.176;2023-05-23T01:01:30;100884.94;;;17.29;76.92
46394;BME280;32099;53.588;10.176;2023-05-23T01:03:55;100897.88;;;17.29;76.91
46394;BME280;32099;53.588;10.176;2023-05-23T01:06:22;100886.25;;;17.26;76.63
46394;BME280;32099;53.588;10.176;2023-05-23T01:08:47;100892.19;;;17.23;76.29
46394;BME280;32099;53.588;10.176;2023-05-23T01:11:18;100886.28;;;17.20;76.10
46394;BME280;32099;53.588;10.176;2023-05-23T01:13:58;100889.31;;;17.11;76.64
46394;BME280;32099;53.588;10.176;2023-05-23T01:16:31;100891.88;;;17.06;76.72
46394;BME280;32099;53.588;10.176;2023-05-23T01:22:11;100873.94;;;16.97;76.64
46394;BME280;32099;53.588;10.176;2023-05-23T01:24:46;100868.88;;;16.94;77.30
46394;BME280;32099;53.588;10.176;2023-05-23T01:30:12;100859.56;;;16.88;77.13
46394;BME280;32099;53.588;10.176;2023-05-23T01:32:38;100868.28;;;16.85;76.94
46394;BME280;32099;53.588;10.176;2023-05-23T01:35:04;100858.53;;;16.83;77.23
46394;BME280;32099;53.588;10.176;2023-05-23T01:37:30;100864.28;;;16.81;77.27
46394;BME280;32099;53.588;10.176;2023-05-23T01:39:55;100860.06;;;16.78;77.65
46394;BME280;32099;53.588;10.176;2023-05-23T01:42:21;100853.72;;;16.78;77.54
46394;BME280;32099;53.588;10.176;2023-05-23T01:44:46;100865.13;;;16.81;77.54
46394;BME280;32099;53.588;10.176;2023-05-23T01:47:12;100860.88;;;16.86;77.28
46394;BME280;32099;53.588;10.176;2023-05-23T01:49:39;100858.75;;;16.88;77.93
46394;BME280;32099;53.588;10.176;2023-05-23T01:52:05;100853.00;;;16.89;77.86
46394;BME280;32099;53.588;10.176;2023-05-23T01:54:33;100863.81;;;16.91;78.07
46394;BME280;32099;53.588;10.176;2023-05-23T01:57:01;100861.69;;;16.86;78.74
46394;BME280;32099;53.588;10.176;2023-05-23T01:59:26;100855.75;;;16.89;78.67
46394;BME280;32099;53.588;10.176;2023-05-23T02:01:52;100861.06;;;16.91;79.65
46394;BME280;32099;53.588;10.176;2023-05-23T02:04:17;100854.44;;;16.92;79.19
46394;BME280;32099;53.588;10.176;2023-05-23T02:06:42;100854.44;;;16.99;79.41
46394;BME280;32099;53.588;10.176;2023-05-23T02:09:08;100857.00;;;17.00;79.29
46394;BME280;32099;53.588;10.176;2023-05-23T02:11:34;100860.97;;;17.04;78.85
46394;BME280;32099;53.588;10.176;2023-05-23T02:13:59;100852.03;;;17.09;79.32
46394;BME280;32099;53.588;10.176;2023-05-23T02:16:26;100856.72;;;17.08;79.21
46394;BME280;32099;53.588;10.176;2023-05-23T02:18:51;100856.25;;;17.11;79.28
46394;BME280;32099;53.588;10.176;2023-05-23T02:21:20;100864.53;;;17.11;79.41
46394;BME280;32099;53.588;10.176;2023-05-23T02:23:46;100865.38;;;17.12;79.93
46394;BME280;32099;53.588;10.176;2023-05-23T02:26:11;100864.53;;;17.11;79.62
46394;BME280;32099;53.588;10.176;2023-05-23T02:28:36;100861.16;;;17.09;79.74
46394;BME280;32099;53.588;10.176;2023-05-23T02:31:01;100859.47;;;17.08;80.31
46394;BME280;32099;53.588;10.176;2023-05-23T02:33:27;100862.22;;;17.08;81.87
46394;BME280;32099;53.588;10.176;2023-05-23T02:35:53;100864.13;;;17.08;80.88
46394;BME280;32099;53.588;10.176;2023-05-23T02:38:19;100848.69;;;17.07;83.29
46394;BME280;32099;53.588;10.176;2023-05-23T02:40:44;100854.22;;;17.00;82.13
46394;BME280;32099;53.588;10.176;2023-05-23T02:43:09;100849.59;;;16.94;83.07
46394;BME280;32099;53.588;10.176;2023-05-23T02:45:35;100847.28;;;16.91;82.64
46394;BME280;32099;53.588;10.176;2023-05-23T02:48:00;100856.19;;;16.86;81.90
46394;BME280;32099;53.588;10.176;2023-05-23T02:50:25;100861.94;;;16.85;81.91
46394;BME280;32099;53.588;10.176;2023-05-23T02:52:50;100863.63;;;16.86;81.38
46394;BME280;32099;53.588;10.176;2023-05-23T02:55:16;100859.16;;;16.85;81.41
46394;BME280;32099;53.588;10.176;2023-05-23T02:57:41;100864.69;;;16.85;80.90
46394;BME280;32099;53.588;10.176;2023-05-23T03:00:06;100865.13;;;16.81;80.77
46394;BME280;32099;53.588;10.176;2023-05-23T03:02:34;100858.38;;;16.77;81.68
46394;BME280;32099;53.588;10.176;2023-05-23T03:04:59;100869.41;;;16.77;81.20
46394;BME280;32099;53.588;10.176;2023-05-23T03:07:25;100872.97;;;16.78;81.27
46394;BME280;32099;53.588;10.176;2023-05-23T03:09:50;100873.66;;;16.73;81.73
46394;BME280;32099;53.588;10.176;2023-05-23T03:12:16;100870.06;;;16.73;81.07
46394;BME280;32099;53.588;10.176;2023-05-23T03:14:41;100887.81;;;16.77;80.70
46394;BME280;32099;53.588;10.176;2023-05-23T03:17:06;100878.06;;;16.81;80.54
46394;BME280;32099;53.588;10.176;2023-05-23T03:19:32;100884.19;;;16.83;80.28
46394;BME280;32099;53.588;10.176;2023-05-23T03:21:57;100879.50;;;16.84;81.30
46394;BME280;32099;53.588;10.176;2023-05-23T03:24:22;100891.59;;;16.83;80.28
46394;BME280;32099;53.588;10.176;2023-05-23T03:26:47;100887.78;;;16.84;80.68
46394;BME280;32099;53.588;10.176;2023-05-23T03:29:13;100881.88;;;16.80;80.84
46394;BME280;32099;53.588;10.176;2023-05-23T03:31:38;100874.72;;;16.72;80.37
46394;BME280;32099;53.588;10.176;2023-05-23T03:34:03;100871.78;;;16.67;80.96
46394;BME280;32099;53.588;10.176;2023-05-23T03:36:32;100870.94;;;16.66;80.95
46394;BME280;32099;53.588;10.176;2023-05-23T03:38:58;100866.28;;;16.67;80.79
46394;BME280;32099;53.588;10.176;2023-05-23T03:41:23;100878.97;;;16.68;80.15
46394;BME280;32099;53.588;10.176;2023-05-23T03:43:48;100873.91;;;16.65;80.74
46394;BME280;32099;53.588;10.176;2023-05-23T03:46:14;100885.13;;;16.63;80.06
46394;BME280;32099;53.588;10.176;2023-05-23T03:48:39;100875.00;;;16.57;80.19
46394;BME280;32099;53.588;10.176;2023-05-23T03:51:04;100881.56;;;16.56;81.62
46394;BME280;32099;53.588;10.176;2023-05-23T03:53:30;100884.31;;;16.56;80.45
46394;BME280;32099;53.588;10.176;2023-05-23T03:55:55;100882.41;;;16.57;80.35
46394;BME280;32099;53.588;10.176;2023-05-23T03:58:21;100879.06;;;16.55;80.82
46394;BME280;32099;53.588;10.176;2023-05-23T04:00:46;100886.06;;;16.50;80.85
46394;BME280;32099;53.588;10.176;2023-05-23T04:03:11;100879.50;;;16.45;80.62
46394;BME280;32099;53.588;10.176;2023-05-23T04:05:41;100873.88;;;16.33;80.93
46394;BME280;32099;53.588;10.176;2023-05-23T04:08:06;100881.69;;;16.29;81.90
46394;BME280;32099;53.588;10.176;2023-05-23T04:10:32;100878.97;;;16.23;80.98
46394;BME280;32099;53.588;10.176;2023-05-23T04:12:57;100877.94;;;16.17;80.87
46394;BME280;32099;53.588;10.176;2023-05-23T04:15:22;100878.81;;;16.11;81.76
46394;BME280;32099;53.588;10.176;2023-05-23T04:17:48;100884.72;;;16.08;81.52
46394;BME280;32099;53.588;10.176;2023-05-23T04:20:15;100882.84;;;16.08;82.78
46394;BME280;32099;53.588;10.176;2023-05-23T04:22:41;100882.84;;;16.08;81.48
46394;BME280;32099;53.588;10.176;2023-05-23T04:25:06;100887.88;;;16.11;80.82
46394;BME280;32099;53.588;10.176;2023-05-23T04:27:33;100882.38;;;16.11;80.98
46394;BME280;32099;53.588;10.176;2023-05-23T04:29:58;100882.38;;;16.11;80.42
46394;BME280;32099;53.588;10.176;2023-05-23T04:32:24;100889.19;;;16.09;81.11
46394;BME280;32099;53.588;10.176;2023-05-23T04:34:50;100888.34;;;16.08;81.68
46394;BME280;32099;53.588;10.176;2023-05-23T04:37:16;100898.09;;;16.04;81.19
46394;BME280;32099;53.588;10.176;2023-05-23T04:39:46;100902.31;;;16.00;80.53
46394;BME280;32099;53.588;10.176;2023-05-23T04:42:12;100891.94;;;16.02;81.59
46394;BME280;32099;53.588;10.176;2023-05-23T04:44:37;100894.94;;;16.00;81.99
46394;BME280;32099;53.588;10.176;2023-05-23T04:47:02;100902.13;;;16.01;80.98
46394;BME280;32099;53.588;10.176;2023-05-23T04:49:27;100895.97;;;15.99;80.90
46394;BME280;32099;53.588;10.176;2023-05-23T04:51:53;100905.50;;;15.97;81.44
46394;BME280;32099;53.588;10.176;2023-05-23T04:54:18;100895.59;;;15.89;81.21
46394;BME280;32099;53.588;10.176;2023-05-23T04:56:43;100897.91;;;15.85;81.54
46394;BME280;32099;53.588;10.176;2023-05-23T04:59:09;100901.06;;;15.82;81.14
46394;BME280;32099;53.588;10.176;2023-05-23T05:01:35;100902.13;;;15.81;82.80
46394;BME280;32099;53.588;10.176;2023-05-23T05:04:04;100903.59;;;15.77;82.27
46394;BME280;32099;53.588;10.176;2023-05-23T05:06:29;100899.16;;;15.76;82.14
46394;BME280;32099;53.588;10.176;2023-05-23T05:08:55;100898.53;;;15.81;81.68
46394;BME280;32099;53.588;10.176;2023-05-23T05:11:20;100901.28;;;15.81;81.82
46394;BME280;32099;53.588;10.176;2023-05-23T05:13:46;100896.22;;;15.84;82.22
46394;BME280;32099;53.588;10.176;2023-05-23T05:16:11;100900.00;;;15.83;81.66
46394;BME280;32099;53.588;10.176;2023-05-23T05:18:37;100904.22;;;15.79;81.12
46394;BME280;32099;53.588;10.176;2023-05-23T05:21:03;100894.50;;;15.77;83.04
46394;BME280;32099;53.588;10.176;2023-05-23T05:23:29;100903.00;;;15.75;82.75
46394;BME280;32099;53.588;10.176;2023-05-23T05:25:55;100886.91;;;15.65;81.43
46394;BME280;32099;53.588;10.176;2023-05-23T05:28:21;100905.75;;;15.68;81.44
46394;BME280;32099;53.588;10.176;2023-05-23T05:30:47;100905.53;;;15.70;81.63
46394;BME280;32099;53.588;10.176;2023-05-23T05:33:12;100900.03;;;15.70;82.48
46394;BME280;32099;53.588;10.176;2023-05-23T05:35:38;100911.84;;;15.70;82.65
46394;BME280;32099;53.588;10.176;2023-05-23T05:38:03;100909.09;;;15.70;83.03
46394;BME280;32099;53.588;10.176;2023-05-23T05:40:30;100905.28;;;15.71;82.10
46394;BME280;32099;53.588;10.176;2023-05-23T05:42:56;100906.97;;;15.72;82.58
46394;BME280;32099;53.588;10.176;2023-05-23T05:45:21;100907.22;;;15.71;83.53
46394;BME280;32099;53.588;10.176;2023-05-23T05:47:47;100905.09;;;15.73;82.10
46394;BME280;32099;53.588;10.176;2023-05-23T05:50:12;100919.25;;;15.77;82.10
46394;BME280;32099;53.588;10.176;2023-05-23T05:52:37;100919.91;;;15.79;81.72
46394;BME280;32099;53.588;10.176;2023-05-23T05:55:04;100915.03;;;15.81;81.46
46394;BME280;32099;53.588;10.176;2023-05-23T05:57:31;100917.16;;;15.79;81.86
46394;BME280;32099;53.588;10.176;2023-05-23T05:59:57;100914.41;;;15.79;82.04
46394;BME280;32099;53.588;10.176;2023-05-23T06:02:22;100916.69;;;15.82;82.13
46394;BME280;32099;53.588;10.176;2023-05-23T06:04:47;100918.22;;;15.84;82.69
46394;BME280;32099;53.588;10.176;2023-05-23T06:07:13;100922.44;;;15.87;81.80
46394;BME280;32099;53.588;10.176;2023-05-23T06:09:38;100927.53;;;15.90;81.83
46394;BME280;32099;53.588;10.176;2023-05-23T06:12:03;100922.44;;;15.94;82.14
46394;BME280;32099;53.588;10.176;2023-05-23T06:14:29;100926.47;;;15.98;83.35
46394;BME280;32099;53.588;10.176;2023-05-23T06:16:54;100923.91;;;15.96;82.04
46394;BME280;32099;53.588;10.176;2023-05-23T06:19:19;100925.84;;;15.89;81.87
46394;BME280;32099;53.588;10.176;2023-05-23T06:21:44;100931.97;;;15.84;81.05
46394;BME280;32099;53.588;10.176;2023-05-23T06:24:10;100931.53;;;15.81;82.77
46394;BME280;32099;53.588;10.176;2023-05-23T06:26:35;100930.44;;;15.82;82.51
46394;BME280;32099;53.588;10.176;2023-05-23T06:29:01;100937.25;;;15.86;82.45
46394;BME280;32099;53.588;10.176;2023-05-23T06:31:27;100937.47;;;15.84;83.18
46394;BME280;32099;53.588;10.176;2023-05-23T06:33:52;100931.09;;;15.84;82.73
46394;BME280;32099;53.588;10.176;2023-05-23T06:36:18;100935.13;;;15.88;82.85
46394;BME280;32099;53.588;10.176;2023-05-23T06:38:43;100938.94;;;15.87;83.34
46394;BME280;32099;53.588;10.176;2023-05-23T06:41:08;100941.28;;;15.90;82.83
46394;BME280;32099;53.588;10.176;2023-05-23T06:43:34;100941.91;;;15.92;84.04
46394;BME280;32099;53.588;10.176;2023-05-23T06:45:59;100942.75;;;15.93;82.88
46394;BME280;32099;53.588;10.176;2023-05-23T06:48:24;100938.94;;;15.94;83.30
46394;BME280;32099;53.588;10.176;2023-05-23T06:50:50;100944.00;;;15.97;84.77
46394;BME280;32099;53.588;10.176;2023-05-23T06:53:15;100944.44;;;15.94;82.89
46394;BME280;32099;53.588;10.176;2023-05-23T06:55:42;100946.75;;;15.97;83.32
46394;BME280;32099;53.588;10.176;2023-05-23T06:58:07;100938.94;;;16.00;82.98
46394;BME280;32099;53.588;10.176;2023-05-23T07:00:32;100942.09;;;16.04;82.55
46394;BME280;32099;53.588;10.176;2023-05-23T07:02:58;100949.91;;;16.07;82.66
46394;BME280;32099;53.588;10.176;2023-05-23T07:05:25;100953.31;;;16.09;82.66
46394;BME280;32099;53.588;10.176;2023-05-23T07:07:52;100951.38;;;16.10;83.12
46394;BME280;32099;53.588;10.176;2023-05-23T07:10:17;100961.31;;;16.11;82.17
46394;BME280;32099;53.588;10.176;2023-05-23T07:12:43;100961.31;;;16.11;82.15
46394;BME280;32099;53.588;10.176;2023-05-23T07:15:09;100961.56;;;16.09;85.53
46394;BME280;32099;53.588;10.176;2023-05-23T07:17:35;100966.84;;;16.04;83.01
46394;BME280;32099;53.588;10.176;2023-05-23T07:20:00;100960.69;;;16.02;83.08
46394;BME280;32099;53.588;10.176;2023-05-23T07:22:26;100968.31;;;16.00;82.67
46394;BME280;32099;53.588;10.176;2023-05-23T07:24:51;100971.69;;;16.02;82.30
46394;BME280;32099;53.588;10.176;2023-05-23T07:27:16;100975.94;;;16.04;82.54
46394;BME280;32099;53.588;10.176;2023-05-23T07:29:42;100971.69;;;16.09;83.21
46394;BME280;32099;53.588;10.176;2023-05-23T07:32:07;100976.13;;;16.10;82.27
46394;BME280;32099;53.588;10.176;2023-05-23T07:34:32;100974.66;;;16.14;82.39
46394;BME280;32099;53.588;10.176;2023-05-23T07:36:57;100981.22;;;16.13;82.37
46394;BME280;32099;53.588;10.176;2023-05-23T07:39:23;100977.59;;;16.12;82.58
46394;BME280;32099;53.588;10.176;2023-05-23T07:41:48;100991.34;;;16.12;81.02
46394;BME280;32099;53.588;10.176;2023-05-23T07:44:14;101001.75;;;16.03;83.06
46394;BME280;32099;53.588;10.176;2023-05-23T07:46:40;100997.97;;;15.98;81.33
46394;BME280;32099;53.588;10.176;2023-05-23T07:49:05;101003.25;;;15.93;81.20
46394;BME280;32099;53.588;10.176;2023-05-23T07:51:31;101009.78;;;15.85;81.24
46394;BME280;32099;53.588;10.176;2023-05-23T07:53:56;101016.75;;;15.81;81.74
46394;BME280;32099;53.588;10.176;2023-05-23T07:56:21;101015.91;;;15.80;81.70
46394;BME280;32099;53.588;10.176;2023-05-23T07:58:47;101012.94;;;15.82;80.95
46394;BME280;32099;53.588;10.176;2023-05-23T08:01:12;101022.72;;;15.84;82.79
46394;BME280;32099;53.588;10.176;2023-05-23T08:03:38;101008.28;;;15.82;81.84
46394;BME280;32099;53.588;10.176;2023-05-23T08:06:03;101014.47;;;15.84;81.87
46394;BME280;32099;53.588;10.176;2023-05-23T08:08:28;101016.56;;;15.89;82.07
46394;BME280;32099;53.588;10.176;2023-05-23T08:10:54;101023.78;;;15.97;80.68
46394;BME280;32099;53.588;10.176;2023-05-23T08:13:19;101017.41;;;15.96;81.17
46394;BME280;32099;53.588;10.176;2023-05-23T08:15:45;101028.00;;;15.93;82.89
46394;BME280;32099;53.588;10.176;2023-05-23T08:18:10;101033.91;;;15.96;82.10
46394;BME280;32099;53.588;10.176;2023-05-23T08:20:36;101036.47;;;15.98;82.30
46394;BME280;32099;53.588;10.176;2023-05-23T08:23:01;101032.84;;;16.04;80.47
46394;BME280;32099;53.588;10.176;2023-05-23T08:25:27;101036.00;;;16.08;79.65
46394;BME280;32099;53.588;10.176;2023-05-23T08:27:56;101043.22;;;16.09;79.81
46394;BME280;32099;53.588;10.176;2023-05-23T08:30:22;101049.56;;;16.09;79.71
46394;BME280;32099;53.588;10.176;2023-05-23T08:32:49;101042.97;;;16.17;79.57
46394;BME280;32099;53.588;10.176;2023-05-23T08:35:15;101054.84;;;16.24;79.62
46394;BME280;32099;53.588;10.176;2023-05-23T08:37:40;101053.78;;;16.32;79.01
46394;BME280;32099;53.588;10.176;2023-05-23T08:40:07;101049.53;;;16.36;79.23
46394;BME280;32099;53.588;10.176;2023-05-23T08:42:38;101057.59;;;16.38;79.57
46394;BME280;32099;53.588;10.176;2023-05-23T08:45:04;101067.09;;;16.35;79.33
46394;BME280;32099;53.588;10.176;2023-05-23T08:47:30;101062.22;;;16.30;78.79
46394;BME280;32099;53.588;10.176;2023-05-23T08:50:01;101075.16;;;16.30;79.13
46394;BME280;32099;53.588;10.176;2023-05-23T08:52:30;101080.03;;;16.21;79.28
46394;BME280;32099;53.588;10.176;2023-05-23T08:54:58;101083.00;;;16.19;79.64
46394;BME280;32099;53.588;10.176;2023-05-23T08:57:25;101086.38;;;16.22;78.68
46394;BME280;32099;53.588;10.176;2023-05-23T08:59:51;101084.69;;;16.21;78.45
46394;BME280;32099;53.588;10.176;2023-05-23T09:02:16;101090.19;;;16.27;78.96
46394;BME280;32099;53.588;10.176;2023-05-23T09:04:42;101090.81;;;16.29;78.72
46394;BME280;32099;53.588;10.176;2023-05-23T09:07:07;101093.78;;;16.28;78.39
46394;BME280;32099;53.588;10.176;2023-05-23T09:09:35;101098.00;;;16.24;80.02
46394;BME280;32099;53.588;10.176;2023-05-23T09:12:01;101094.66;;;16.15;77.61
46394;BME280;32099;53.588;10.176;2023-05-23T09:14:27;101099.50;;;16.06;77.81
46394;BME280;32099;53.588;10.176;2023-05-23T09:16:59;101106.28;;;15.97;77.68
46394;BME280;32099;53.588;10.176;2023-05-23T09:19:25;101110.50;;;15.93;78.60
46394;BME280;32099;53.588;10.176;2023-05-23T09:21:52;101123.19;;;15.87;79.64
46394;BME280;32099;53.588;10.176;2023-05-23T09:24:18;101123.13;;;15.80;78.28
46394;BME280;32099;53.588;10.176;2023-05-23T09:26:45;101129.03;;;15.77;79.07
46394;BME280;32099;53.588;10.176;2023-05-23T09:29:12;101132.66;;;15.78;78.52
46394;BME280;32099;53.588;10.176;2023-05-23T09:31:37;101138.53;;;15.68;80.50
46394;BME280;32099;53.588;10.176;2023-05-23T09:34:02;101143.59;;;15.57;80.93
46394;BME280;32099;53.588;10.176;2023-05-23T09:36:28;101146.31;;;15.51;80.13
46394;BME280;32099;53.588;10.176;2023-05-23T09:38:54;101154.34;;;15.46;80.51
46394;BME280;32099;53.588;10.176;2023-05-23T09:41:20;101151.59;;;15.46;80.54
46394;BME280;32099;53.588;10.176;2023-05-23T09:43:51;101152.00;;;15.42;80.96
46394;BME280;32099;53.588;10.176;2023-05-23T09:46:18;101149.63;;;15.33;82.35
46394;BME280;32099;53.588;10.176;2023-05-23T09:48:48;101162.25;;;15.20;81.74
46394;BME280;32099;53.588;10.176;2023-05-23T09:51:16;101171.91;;;15.09;81.40
46394;BME280;32099;53.588;10.176;2023-05-23T09:53:43;101168.47;;;15.01;81.61
46394;BME280;32099;53.588;10.176;2023-05-23T09:56:08;101174.97;;;14.93;80.74
46394;BME280;32099;53.588;10.176;2023-05-23T09:58:35;101164.13;;;14.78;82.20
46394;BME280;32099;53.588;10.176;2023-05-23T10:01:02;101175.91;;;14.72;81.65
46394;BME280;32099;53.588;10.176;2023-05-23T10:03:33;101177.78;;;14.71;82.41
46394;BME280;32099;53.588;10.176;2023-05-23T10:06:06;101182.25;;;14.72;81.77
46394;BME280;32099;53.588;10.176;2023-05-23T10:08:38;101184.34;;;14.70;82.44
46394;BME280;32099;53.588;10.176;2023-05-23T10:13:42;101188.69;;;14.64;82.97
46394;BME280;32099;53.588;10.176;2023-05-23T10:16:13;101191.00;;;14.61;81.08
46394;BME280;32099;53.588;10.176;2023-05-23T10:18:44;101198.56;;;14.59;81.97
46394;BME280;32099;53.588;10.176;2023-05-23T10:21:14;101208.50;;;14.60;82.82
46394;BME280;32099;53.588;10.176;2023-05-23T10:23:44;101209.31;;;14.54;82.15
46394;BME280;32099;53.588;10.176;2023-05-23T10:26:12;101212.66;;;14.49;81.26
46394;BME280;32099;53.588;10.176;2023-05-23T10:28:38;101215.78;;;14.46;81.65
46394;BME280;32099;53.588;10.176;2023-05-23T10:31:05;101208.81;;;14.43;81.36
46394;BME280;32099;53.588;10.176;2023-05-23T10:33:32;101218.06;;;14.42;80.99
46394;BME280;32099;53.588;10.176;2023-05-23T10:36:13;101226.31;;;14.42;81.56
46394;BME280;32099;53.588;10.176;2023-05-23T10:39:31;101233.88;;;14.40;80.90
46394;BME280;32099;53.588;10.176;2023-05-23T10:41:42;101229.16;;;14.34;80.93
46394;BME280;32099;53.588;10.176;2023-05-23T10:46:52;101236.69;;;14.25;80.78
46394;BME280;32099;53.588;10.176;2023-05-23T10:49:19;101247.19;;;14.22;81.10
46394;BME280;32099;53.588;10.176;2023-05-23T10:52:05;101253.75;;;14.21;80.61
46394;BME280;32099;53.588;10.176;2023-05-23T10:54:50;101251.38;;;14.17;80.82
46394;BME280;32099;53.588;10.176;2023-05-23T10:57:22;101251.56;;;14.16;80.53
46394;BME280;32099;53.588;10.176;2023-05-23T10:59:52;101258.13;;;14.15;80.10
46394;BME280;32099;53.588;10.176;2023-05-23T11:02:18;101264.63;;;14.14;81.10
46394;BME280;32099;53.588;10.176;2023-05-23T11:07:45;101256.13;;;14.09;81.41
46394;BME280;32099;53.588;10.176;2023-05-23T11:10:11;101257.16;;;14.08;80.27
46394;BME280;32099;53.588;10.176;2023-05-23T11:12:41;101257.84;;;14.10;80.15
46394;BME280;32099;53.588;10.176;2023-05-23T11:17:51;101274.38;;;14.16;80.09
46394;BME280;32099;53.588;10.176;2023-05-23T11:20:25;101275.19;;;14.17;79.34
46394;BME280;32099;53.588;10.176;2023-05-23T11:22:59;101267.47;;;14.21;79.04
46394;BME280;32099;53.588;10.176;2023-05-23T11:25:47;101279.53;;;14.26;79.50
46394;BME280;32099;53.588;10.176;2023-05-23T11:28:14;101290.63;;;14.40;79.18
46394;BME280;32099;53.588;10.176;2023-05-23T11:30:40;101287.28;;;14.44;78.38
46394;BME280;32099;53.588;10.176;2023-05-23T11:33:09;101278.44;;;14.42;77.87
46394;BME280;32099;53.588;10.176;2023-05-23T11:35:42;101289.41;;;14.42;77.64
46394;BME280;32099;53.588;10.176;2023-05-23T11:38:10;101287.31;;;14.66;77.71
46394;BME280;32099;53.588;10.176;2023-05-23T11:40:36;101290.50;;;14.91;77.24
46394;BME280;32099;53.588;10.176;2023-05-23T11:43:06;101291.91;;;15.09;75.20
46394;BME280;32099;53.588;10.176;2023-05-23T11:45:33;101290.31;;;15.21;75.73
46394;BME280;32099;53.588;10.176;2023-05-23T11:48:06;101291.06;;;15.37;75.50
46394;BME280;32099;53.588;10.176;2023-05-23T11:51:09;101291.78;;;15.52;73.34
46394;BME280;32099;53.588;10.176;2023-05-23T11:53:28;101289.91;;;15.60;74.32
46394;BME280;32099;53.588;10.176;2023-05-23T11:55:55;101306.22;;;15.68;73.35
46394;BME280;32099;53.588;10.176;2023-05-23T11:58:28;101309.88;;;15.75;72.77
46394;BME280;32099;53.588;10.176;2023-05-23T12:00:59;101307.34;;;15.80;70.55
46394;BME280;32099;53.588;10.176;2023-05-23T12:03:26;101294.94;;;15.84;72.64
46394;BME280;32099;53.588;10.176;2023-05-23T12:05:52;101292.22;;;15.91;71.13
46394;BME280;32099;53.588;10.176;2023-05-23T12:08:19;101292.44;;;15.96;70.49
46394;BME280;32099;53.588;10.176;2023-05-23T12:10:48;101301.31;;;15.98;69.78
46394;BME280;32099;53.588;10.176;2023-05-23T12:13:18;101294.97;;;15.91;70.79
46394;BME280;32099;53.588;10.176;2023-05-23T12:15:43;101306.38;;;15.88;71.28
46394;BME280;32099;53.588;10.176;2023-05-23T12:18:09;101317.78;;;15.92;70.98
46394;BME280;32099;53.588;10.176;2023-05-23T12:20:36;101317.78;;;15.92;70.82
46394;BME280;32099;53.588;10.176;2023-05-23T12:23:04;101316.94;;;15.84;67.76
46394;BME280;32099;53.588;10.176;2023-05-23T12:25:37;101318.50;;;15.65;69.52
46394;BME280;32099;53.588;10.176;2023-05-23T12:28:05;101321.66;;;15.69;68.91
46394;BME280;32099;53.588;10.176;2023-05-23T12:30:39;101325.81;;;15.86;69.14
46394;BME280;32099;53.588;10.176;2023-05-23T12:33:07;101321.00;;;16.02;67.45
46394;BME280;32099;53.588;10.176;2023-05-23T12:35:32;101325.91;;;16.13;68.22
46394;BME280;32099;53.588;10.176;2023-05-23T12:37:58;101324.53;;;16.38;66.97
46394;BME280;32099;53.588;10.176;2023-05-23T12:40:23;101322.88;;;16.70;68.21
46394;BME280;32099;53.588;10.176;2023-05-23T12:42:49;101338.81;;;17.02;66.83
46394;BME280;32099;53.588;10.176;2023-05-23T12:45:15;101326.53;;;17.11;63.32
46394;BME280;32099;53.588;10.176;2023-05-23T12:47:40;101337.53;;;17.11;64.77
46394;BME280;32099;53.588;10.176;2023-05-23T12:50:06;101321.88;;;17.18;63.55
46394;BME280;32099;53.588;10.176;2023-05-23T12:52:31;101327.81;;;17.29;63.86
46394;BME280;32099;53.588;10.176;2023-05-23T12:54:57;101330.34;;;17.30;64.83